createdAt,value
2017-09-24T04:28:30.530Z,62.70
2017-09-24T04:30:58.481Z,62.60
2017-09-24T04:33:26.853Z,61.50
2017-09-24T04:35:55.461Z,59.90
2017-09-24T04:38:23.402Z,58.80
2017-09-24T04:40:51.945Z,58.90
2017-09-24T04:43:20.024Z,57.30
2017-09-24T04:45:47.986Z,55.10
2017-09-24T04:48:16.470Z,54.60
2017-09-24T04:50:45.131Z,54.20
2017-09-24T04:53:13.774Z,52.70
2017-09-24T04:55:42.491Z,53.30
2017-09-24T04:58:10.563Z,53.20
2017-09-24T05:00:38.506Z,51.00
2017-09-24T05:03:07.221Z,48.30
2017-09-24T05:05:36.024Z,48.20
2017-09-24T05:08:03.999Z,45.40
2017-09-24T05:10:32.608Z,43.70
2017-09-24T05:13:00.669Z,43.50
2017-09-24T05:15:28.631Z,44.20
2017-09-24T05:17:57.209Z,44.50
2017-09-24T05:20:26.001Z,44.90
2017-09-24T05:22:54.814Z,45.00
2017-09-24T05:25:23.538Z,45.50
2017-09-24T05:27:52.410Z,46.20
2017-09-24T05:30:21.258Z,45.50
2017-09-24T05:32:49.197Z,45.60
2017-09-24T05:35:17.269Z,45.50
2017-09-24T05:37:45.217Z,45.80
2017-09-24T05:40:13.885Z,44.50
2017-09-24T05:42:41.988Z,44.50
2017-09-24T05:45:10.667Z,41.20
2017-09-24T05:47:39.333Z,40.10
2017-09-24T05:50:07.409Z,40.10
2017-09-24T05:52:35.345Z,39.20
2017-09-24T05:55:03.290Z,38.80
2017-09-24T05:57:31.372Z,39.00
2017-09-24T05:59:59.311Z,39.80
2017-09-24T06:02:27.998Z,41.10
2017-09-24T06:04:56.799Z,41.40
2017-09-24T06:07:24.907Z,41.30
2017-09-24T06:09:52.846Z,41.90
2017-09-24T06:12:20.894Z,42.70
2017-09-24T06:14:48.828Z,42.90
2017-09-24T06:17:16.765Z,43.40
2017-09-24T06:19:44.812Z,42.90
2017-09-24T06:22:13.502Z,43.40
2017-09-24T06:24:42.814Z,44.10
2017-09-24T06:27:12.292Z,43.90
2017-09-24T06:29:40.268Z,43.90
2017-09-24T06:32:09.109Z,45.10
2017-09-24T06:34:37.170Z,45.10
2017-09-24T06:37:05.481Z,45.30
2017-09-24T06:39:34.159Z,44.80
2017-09-24T06:42:02.631Z,44.80
2017-09-24T06:44:30.569Z,45.00
2017-09-24T06:46:59.304Z,44.70
2017-09-24T06:49:27.393Z,44.70
2017-09-24T06:51:56.126Z,44.60
2017-09-24T06:54:24.886Z,45.10
2017-09-24T06:56:53.565Z,45.10
2017-09-24T06:59:22.050Z,45.40
2017-09-24T07:01:50.013Z,44.90
2017-09-24T07:04:18.111Z,45.80
2017-09-24T07:06:46.857Z,45.20
2017-09-24T07:09:15.474Z,45.30
2017-09-24T07:11:44.217Z,45.40
2017-09-24T07:14:12.205Z,45.30
2017-09-24T07:16:40.157Z,45.00
2017-09-24T07:19:08.262Z,45.00
2017-09-24T07:21:36.214Z,44.30
2017-09-24T07:24:04.798Z,43.10
2017-09-24T07:26:33.475Z,41.90
2017-09-24T07:29:02.071Z,40.70
2017-09-24T07:31:30.161Z,39.80
2017-09-24T07:33:58.489Z,39.40
2017-09-24T07:36:26.481Z,40.00
2017-09-24T07:38:55.080Z,40.50
2017-09-24T07:41:23.879Z,40.80
2017-09-24T07:43:52.549Z,40.90
2017-09-24T07:46:21.230Z,41.60
2017-09-24T07:48:49.312Z,42.50
2017-09-24T07:51:17.397Z,42.40
2017-09-24T07:53:45.874Z,42.20
2017-09-24T07:56:14.686Z,42.20
2017-09-24T07:58:43.409Z,42.20
2017-09-24T08:01:12.773Z,42.60
2017-09-24T08:03:40.965Z,42.60
2017-09-24T08:06:09.035Z,43.70
2017-09-24T08:08:37.615Z,43.30
2017-09-24T08:11:06.473Z,43.60
2017-09-24T08:13:34.987Z,43.80
2017-09-24T08:16:03.735Z,42.70
2017-09-24T08:18:31.810Z,42.70
2017-09-24T08:20:59.734Z,43.30
2017-09-24T08:23:28.413Z,44.30
2017-09-24T08:25:57.229Z,44.30
2017-09-24T08:28:26.496Z,43.20
2017-09-24T08:30:54.449Z,43.20
2017-09-24T08:33:22.504Z,43.40
2017-09-24T08:35:50.578Z,43.50
2017-09-24T08:38:19.269Z,43.60
2017-09-24T08:40:48.121Z,43.90
2017-09-24T08:43:17.470Z,44.70
2017-09-24T08:45:45.817Z,44.60
2017-09-24T08:48:14.634Z,44.90
2017-09-24T08:50:42.586Z,45.20
2017-09-24T08:53:10.570Z,45.60
2017-09-24T08:55:39.146Z,45.80
2017-09-24T08:58:07.737Z,45.00
2017-09-24T09:00:36.630Z,44.80
2017-09-24T09:03:07.446Z,45.20
2017-09-24T09:05:35.558Z,46.00
2017-09-24T09:08:04.019Z,45.50
2017-09-24T09:10:33.836Z,45.40
2017-09-24T09:13:03.037Z,45.60
2017-09-24T09:15:33.555Z,46.60
2017-09-24T09:18:02.014Z,47.60
2017-09-24T09:20:31.273Z,47.80
2017-09-24T09:23:00.673Z,47.80
2017-09-24T09:25:29.397Z,48.00
2017-09-24T09:30:35.570Z,47.40
2017-09-24T09:33:18.769Z,47.50
2017-09-24T09:35:47.929Z,47.50
2017-09-24T09:38:16.706Z,47.40
2017-09-24T09:40:46.540Z,48.30
2017-09-24T09:43:15.581Z,48.20
2017-09-24T09:45:55.730Z,48.40
2017-09-24T09:48:25.109Z,49.10
2017-09-24T09:50:53.824Z,49.10
2017-09-24T09:53:23.070Z,49.30
2017-09-24T09:55:54.213Z,48.80
2017-09-24T09:58:22.943Z,47.70
2017-09-24T10:00:51.821Z,47.80
2017-09-24T10:03:20.741Z,47.80
2017-09-24T10:05:49.361Z,47.90
2017-09-24T10:08:40.870Z,47.90
2017-09-24T10:11:09.779Z,47.30
2017-09-24T10:13:39.882Z,47.40
2017-09-24T10:16:09.769Z,47.40
2017-09-24T10:18:38.770Z,46.90
2017-09-24T10:21:07.254Z,47.30
2017-09-24T10:23:36.966Z,47.60
2017-09-24T10:26:05.034Z,47.40
2017-09-24T10:28:57.461Z,46.50
2017-09-24T10:44:50.617Z,46.60
2017-09-24T10:47:18.553Z,47.00
2017-09-24T10:49:46.993Z,46.40
2017-09-24T10:52:15.058Z,46.00
2017-09-24T10:54:42.991Z,47.00
2017-09-24T10:57:11.786Z,47.60
2017-09-24T10:59:40.346Z,48.60
2017-09-24T11:02:08.316Z,49.90
2017-09-24T11:04:36.998Z,48.90
2017-09-24T11:07:05.785Z,49.80
2017-09-24T11:09:34.457Z,50.00
2017-09-24T11:12:02.394Z,50.00
2017-09-24T11:14:30.458Z,50.40
2017-09-24T11:16:59.032Z,49.80
2017-09-24T11:19:28.609Z,50.00
2017-09-24T11:21:57.409Z,50.30
2017-09-24T11:24:25.338Z,50.30
2017-09-24T11:26:53.957Z,51.10
2017-09-24T11:29:23.404Z,53.70
2017-09-24T11:31:51.358Z,53.60
2017-09-24T11:34:19.853Z,53.50
2017-09-24T11:36:48.805Z,53.30
2017-09-24T11:39:17.498Z,51.60
2017-09-24T11:41:45.433Z,51.60
2017-09-24T11:44:14.254Z,52.30
2017-09-24T11:46:43.700Z,52.80
2017-09-24T11:49:12.389Z,52.70
2017-09-24T11:51:40.921Z,53.10
2017-09-24T11:54:09.598Z,54.30
2017-09-24T11:56:37.537Z,54.30
2017-09-24T11:59:06.422Z,54.70
2017-09-24T12:01:34.369Z,54.30
2017-09-24T12:04:02.870Z,55.30
2017-09-24T12:06:31.481Z,56.20
2017-09-24T12:08:59.538Z,56.20
2017-09-24T12:11:27.469Z,57.50
2017-09-24T12:13:55.506Z,58.30
2017-09-24T12:16:24.221Z,58.20
2017-09-24T12:18:53.465Z,59.30
2017-09-24T12:21:21.941Z,59.20
2017-09-24T12:23:50.457Z,58.10
2017-09-24T12:26:19.324Z,57.90
2017-09-24T12:28:47.381Z,59.50
2017-09-24T12:31:16.083Z,60.00
2017-09-24T12:33:44.621Z,60.60
2017-09-24T12:36:13.435Z,60.00
2017-09-24T12:38:41.370Z,60.00
2017-09-24T12:41:10.043Z,62.60
2017-09-24T12:43:38.099Z,62.60
2017-09-24T12:46:06.049Z,66.60
2017-09-24T12:48:34.133Z,67.50
2017-09-24T12:51:02.365Z,68.70
2017-09-24T12:53:31.077Z,72.90
2017-09-24T12:55:59.067Z,72.80
2017-09-24T12:58:27.192Z,77.00
2017-09-24T13:00:55.882Z,84.70
2017-09-24T13:03:24.570Z,88.10
2017-09-24T13:05:53.390Z,90.20
2017-09-24T13:08:21.687Z,90.50
2017-09-24T13:10:49.682Z,89.90
2017-09-24T13:13:17.751Z,88.40
2017-09-24T13:15:45.693Z,90.10
2017-09-24T13:18:14.105Z,91.70
2017-09-24T13:20:42.857Z,92.00
2017-09-24T13:23:11.515Z,93.10
2017-09-24T13:25:39.444Z,91.70
2017-09-24T13:28:07.498Z,91.90
2017-09-24T13:30:35.447Z,91.30
2017-09-24T13:33:03.877Z,92.00
2017-09-24T13:35:31.965Z,92.50
2017-09-24T13:38:01.381Z,94.00
2017-09-24T13:40:30.073Z,94.00
2017-09-24T13:42:58.209Z,94.00
2017-09-24T13:45:26.166Z,94.90
2017-09-24T13:47:54.097Z,95.30
2017-09-24T13:50:22.326Z,95.00
2017-09-24T13:52:50.311Z,96.50
2017-09-24T13:55:19.864Z,99.10
2017-09-24T13:57:48.369Z,98.90
2017-09-24T14:00:16.326Z,99.90
2017-09-24T14:02:44.283Z,99.90
2017-09-24T14:05:13.046Z,99.90
2017-09-24T14:07:41.830Z,99.90
2017-09-24T14:10:10.576Z,99.90
2017-09-24T14:12:38.654Z,99.90
2017-09-24T14:15:06.614Z,99.90
2017-09-24T14:17:35.219Z,99.90
2017-09-24T14:20:05.098Z,99.90
2017-09-24T14:22:33.057Z,99.90
2017-09-24T14:25:01.163Z,99.90
2017-09-24T14:27:29.325Z,99.90
2017-09-24T14:29:57.342Z,99.90
2017-09-24T14:32:26.125Z,99.90
2017-09-24T14:34:54.215Z,99.90
2017-09-24T14:37:22.907Z,99.90
2017-09-24T14:39:51.582Z,99.90
2017-09-24T14:42:20.374Z,99.90
2017-09-24T14:44:49.063Z,99.90
2017-09-24T14:47:17.809Z,99.90
2017-09-24T14:49:46.042Z,99.90
2017-09-24T14:52:15.509Z,99.90
2017-09-24T14:54:44.272Z,99.90
2017-09-24T14:57:13.052Z,99.90
2017-09-24T14:59:40.995Z,99.90
2017-09-24T15:02:09.990Z,99.90
2017-09-24T15:04:39.357Z,99.90
2017-09-24T15:07:07.961Z,99.90
2017-09-24T15:09:37.421Z,99.90
2017-09-24T15:12:06.334Z,99.90
2017-09-24T15:14:34.861Z,99.90
2017-09-24T15:17:04.906Z,99.90
2017-09-24T15:19:33.885Z,99.90
2017-09-24T15:22:03.218Z,99.90
2017-09-24T15:24:31.997Z,99.90
2017-09-24T15:27:00.282Z,99.90
2017-09-24T15:29:28.397Z,99.90
2017-09-24T15:31:57.149Z,99.90
2017-09-24T15:34:25.234Z,99.90
2017-09-24T15:36:53.900Z,99.90
2017-09-24T15:39:27.288Z,99.90
2017-09-24T15:41:59.483Z,99.90
2017-09-24T15:44:30.067Z,99.90
2017-09-24T15:46:58.229Z,99.90
2017-09-24T15:49:28.420Z,99.90
2017-09-24T15:51:57.278Z,99.90
2017-09-24T15:54:25.357Z,99.90
2017-09-24T15:56:53.311Z,99.90
2017-09-24T15:59:21.434Z,99.90
2017-09-24T16:01:49.410Z,99.90
2017-09-24T16:04:17.363Z,99.90
2017-09-24T16:06:45.417Z,99.90
2017-09-24T16:09:13.961Z,99.90
2017-09-24T16:11:43.314Z,99.90
2017-09-24T16:14:11.665Z,99.90
2017-09-24T16:16:39.670Z,99.90
2017-09-24T16:19:07.652Z,99.90
2017-09-24T16:21:36.315Z,99.90
2017-09-24T16:24:04.990Z,99.90
2017-09-24T16:26:33.481Z,99.90
2017-09-24T16:29:02.170Z,99.90
2017-09-24T16:31:30.138Z,99.90
2017-09-24T16:33:58.226Z,99.90
2017-09-24T16:36:26.449Z,99.90
2017-09-24T16:38:55.254Z,99.90
2017-09-24T16:41:23.226Z,99.90
2017-09-24T16:43:51.425Z,99.90
2017-09-24T16:46:19.506Z,99.90
2017-09-24T16:48:47.441Z,99.90
2017-09-24T16:51:16.113Z,99.90
2017-09-24T16:53:45.522Z,99.90
2017-09-24T16:56:14.454Z,99.90
2017-09-24T16:58:42.503Z,99.90
2017-09-24T17:01:10.454Z,99.90
2017-09-24T17:03:39.273Z,99.90
2017-09-24T17:06:07.321Z,99.90
2017-09-24T17:08:36.553Z,99.90
2017-09-24T17:11:04.953Z,99.90
2017-09-24T17:13:33.550Z,99.90
2017-09-24T17:16:02.443Z,99.90
2017-09-24T17:18:30.381Z,99.90
2017-09-24T17:20:58.437Z,99.90
2017-09-24T17:23:26.369Z,99.90
2017-09-24T17:25:55.282Z,99.90
2017-09-24T17:28:24.829Z,99.90
2017-09-24T17:30:53.309Z,99.90
2017-09-24T17:33:21.378Z,99.90
2017-09-24T17:35:49.420Z,99.90
2017-09-24T17:38:18.818Z,99.90
2017-09-24T17:40:47.481Z,99.80
2017-09-24T17:43:15.537Z,99.80
2017-09-24T17:45:43.465Z,99.70
2017-09-24T17:48:11.409Z,99.50
2017-09-24T17:50:40.193Z,99.20
2017-09-24T17:53:08.872Z,98.70
2017-09-24T17:55:36.818Z,98.70
2017-09-24T17:58:05.006Z,98.20
2017-09-24T18:00:33.485Z,97.90
2017-09-24T18:03:01.425Z,97.90
2017-09-24T18:05:29.498Z,97.10
2017-09-24T18:07:58.017Z,96.40
2017-09-24T18:10:26.602Z,94.40
2017-09-24T18:12:55.357Z,94.50
2017-09-24T18:15:23.306Z,94.60
2017-09-24T18:17:51.845Z,94.70
2017-09-24T18:20:19.898Z,94.90
2017-09-24T18:22:47.847Z,94.90
2017-09-24T18:25:16.267Z,94.20
2017-09-24T18:27:44.954Z,93.30
2017-09-24T18:30:12.927Z,92.80
2017-09-24T18:32:41.477Z,92.10
2017-09-24T18:35:09.537Z,91.50
2017-09-24T18:37:37.477Z,91.30
2017-09-24T18:40:06.711Z,91.40
2017-09-24T18:42:34.902Z,91.30
2017-09-24T18:45:03.442Z,91.70
2017-09-24T18:47:32.249Z,93.00
2017-09-24T18:50:00.469Z,93.00
2017-09-24T18:52:28.537Z,93.20
2017-09-24T18:54:57.101Z,92.90
2017-09-24T18:57:25.902Z,92.60
2017-09-24T18:59:54.750Z,92.90
2017-09-24T19:02:24.017Z,93.60
2017-09-24T19:04:52.065Z,93.60
2017-09-24T19:07:19.989Z,93.80
2017-09-24T19:09:48.662Z,93.60
2017-09-24T19:12:18.222Z,93.40
2017-09-24T19:14:46.613Z,93.30
2017-09-24T19:17:15.190Z,93.40
2017-09-24T19:19:43.902Z,93.60
2017-09-24T19:22:11.845Z,93.60
2017-09-24T19:24:39.767Z,93.50
2017-09-24T19:27:09.453Z,94.20
2017-09-24T19:29:37.894Z,94.20
2017-09-24T19:32:06.314Z,94.20
2017-09-24T19:34:34.365Z,94.20
2017-09-24T19:37:02.297Z,93.90
2017-09-24T19:39:30.229Z,93.90
2017-09-24T19:41:58.845Z,94.00
2017-09-24T19:44:27.520Z,93.70
2017-09-24T19:46:56.567Z,93.60
2017-09-24T19:49:25.281Z,93.60
2017-09-24T19:51:53.238Z,93.90
2017-09-24T19:54:21.321Z,94.00
2017-09-24T19:56:50.014Z,94.10
2017-09-24T19:59:18.565Z,94.40
2017-09-24T20:01:46.633Z,94.50
2017-09-24T20:04:15.367Z,93.90
2017-09-24T20:06:43.313Z,97.20
2017-09-24T20:09:11.245Z,98.30
2017-09-24T20:11:39.788Z,97.50
2017-09-24T20:14:08.333Z,96.90
2017-09-24T20:16:36.261Z,96.90
2017-09-24T20:19:05.562Z,95.60
2017-09-24T20:21:34.237Z,94.20
2017-09-24T20:24:02.166Z,94.20
2017-09-24T20:26:30.773Z,94.20
2017-09-24T20:28:59.126Z,94.60
2017-09-24T20:31:27.069Z,94.60
2017-09-24T20:33:55.714Z,94.50
2017-09-24T20:36:23.658Z,94.70
2017-09-24T20:38:51.586Z,94.50
2017-09-24T20:41:20.389Z,95.80
2017-09-24T20:43:48.899Z,95.80
2017-09-24T20:46:17.268Z,96.00
2017-09-24T20:48:46.117Z,95.60
2017-09-24T20:51:15.464Z,97.20
2017-09-24T20:53:43.554Z,97.30
2017-09-24T20:56:11.628Z,98.30
2017-09-24T20:58:40.102Z,99.10
2017-09-24T21:01:08.786Z,99.30
2017-09-24T21:03:37.777Z,99.60
2017-09-24T21:06:06.134Z,99.50
2017-09-24T21:08:34.072Z,98.40
2017-09-24T21:11:02.127Z,96.30
2017-09-24T21:13:30.750Z,96.40
2017-09-24T21:16:00.013Z,96.00
2017-09-24T21:18:28.674Z,96.00
2017-09-24T21:20:57.339Z,95.70
2017-09-24T21:23:25.266Z,96.90
2017-09-24T21:25:53.305Z,96.90
2017-09-24T21:28:21.882Z,97.50
2017-09-24T21:30:50.273Z,97.30
2017-09-24T21:33:18.881Z,96.60
2017-09-24T21:35:46.821Z,96.10
2017-09-24T21:38:14.755Z,95.70
2017-09-24T21:40:43.546Z,94.20
2017-09-24T21:43:12.877Z,94.90
2017-09-24T21:45:40.821Z,94.80
2017-09-24T21:48:10.157Z,93.80
2017-09-24T21:50:38.769Z,93.80
2017-09-24T21:53:07.495Z,93.90
2017-09-24T21:55:36.409Z,94.00
2017-09-24T21:58:04.941Z,94.00
2017-09-24T22:00:33.522Z,93.90
2017-09-24T22:03:02.446Z,93.80
2017-09-24T22:05:31.890Z,93.90
2017-09-24T22:08:00.473Z,93.90
2017-09-24T22:10:28.524Z,96.00
2017-09-24T22:12:56.441Z,96.20
2017-09-24T22:15:25.006Z,95.50
2017-09-24T22:17:53.714Z,93.10
2017-09-24T22:20:22.437Z,90.80
2017-09-24T22:22:51.710Z,91.80
2017-09-24T22:25:19.782Z,91.80
2017-09-24T22:27:47.855Z,92.10
2017-09-24T22:30:15.789Z,92.60
2017-09-24T22:32:44.589Z,92.70
2017-09-24T22:35:13.337Z,92.70
2017-09-24T22:37:41.998Z,93.80
2017-09-24T22:40:10.055Z,93.80
2017-09-24T22:42:37.969Z,93.90
2017-09-24T22:45:05.910Z,93.60
2017-09-24T22:47:34.480Z,93.50
2017-09-24T22:50:02.902Z,94.00
2017-09-24T22:52:31.187Z,93.30
2017-09-24T22:54:59.247Z,93.00
2017-09-24T22:57:27.933Z,93.30
2017-09-24T22:59:56.614Z,93.80
2017-09-24T23:02:25.753Z,93.30
2017-09-24T23:04:54.273Z,93.30
2017-09-24T23:07:23.033Z,93.20
2017-09-24T23:09:51.077Z,93.00
2017-09-24T23:12:19.010Z,93.30
2017-09-24T23:14:46.938Z,93.80
2017-09-24T23:17:15.422Z,94.40
2017-09-24T23:19:44.009Z,94.00
2017-09-24T23:22:11.950Z,93.60
2017-09-24T23:24:40.005Z,93.50
2017-09-24T23:27:08.687Z,93.30
2017-09-24T23:29:37.349Z,93.30
2017-09-24T23:32:05.397Z,93.30
2017-09-24T23:34:33.341Z,93.30
2017-09-24T23:37:02.569Z,93.30
2017-09-24T23:39:31.382Z,93.30
2017-09-24T23:41:59.321Z,93.30
2017-09-24T23:44:27.249Z,93.50
2017-09-24T23:46:56.701Z,94.20
2017-09-24T23:49:25.106Z,94.20
2017-09-24T23:51:53.696Z,94.20
2017-09-24T23:54:22.458Z,95.00
2017-09-24T23:56:50.381Z,95.00
2017-09-24T23:59:19.064Z,95.30
